Time;durP1;ratioP1;P1;durP2;ratioP2;P2;SDS_P1;SDS_P2;PMS_P1;PMS_P2;Temp;Humidity;BMP_temperature;BMP_pressure;BME280_temperature;BME280_humidity;BME280_pressure;Samples;Min_cycle;Max_cycle;Signal;HPM_P1;HPM_P2
2023/09/11 00:01:45;;;;;;;6.22;1.92;;;39.30;43.00;;;;;;5062752;28;20043;-62
2023/09/11 00:04:11;;;;;;;7.30;1.90;;;39.30;43.10;;;;;;5063334;28;20016;-63
2023/09/11 00:06:38;;;;;;;7.68;1.80;;;39.20;43.10;;;;;;5060885;28;20021;-60
2023/09/11 00:09:04;;;;;;;11.05;2.33;;;39.20;43.90;;;;;;5063205;28;20025;-64
2023/09/11 00:11:31;;;;;;;9.13;1.95;;;39.10;43.50;;;;;;5060166;28;20009;-63
2023/09/11 00:13:57;;;;;;;8.95;2.20;;;39.10;43.10;;;;;;5061485;28;20091;-62
2023/09/11 00:16:23;;;;;;;10.90;2.33;;;39.00;43.20;;;;;;5064007;28;20582;-62
2023/09/11 00:18:50;;;;;;;10.13;3.05;;;39.00;43.20;;;;;;5065241;28;20063;-63
2023/09/11 00:21:16;;;;;;;12.80;2.70;;;39.00;43.90;;;;;;5064610;28;20325;-62
2023/09/11 00:23:43;;;;;;;11.35;3.75;;;38.90;43.70;;;;;;5065964;28;20017;-61
2023/09/11 00:26:11;;;;;;;11.43;2.42;;;38.90;44.20;;;;;;5062966;28;20027;-62
2023/09/11 00:28:37;;;;;;;10.30;2.20;;;38.90;44.30;;;;;;5066422;28;20456;-62
2023/09/11 00:31:04;;;;;;;13.30;2.65;;;38.90;43.90;;;;;;5063522;28;20052;-63
2023/09/11 00:33:30;;;;;;;14.88;3.25;;;38.90;44.20;;;;;;5062067;28;20020;-65
2023/09/11 00:35:56;;;;;;;11.65;2.58;;;38.80;44.10;;;;;;5066144;28;20476;-63
2023/09/11 00:38:23;;;;;;;11.48;5.22;;;38.70;43.80;;;;;;5062758;28;21550;-65
2023/09/11 00:40:49;;;;;;;9.60;2.50;;;38.60;43.90;;;;;;5061981;28;20020;-62
2023/09/11 00:43:16;;;;;;;20.77;2.67;;;38.60;43.70;;;;;;5059247;28;20122;-61
2023/09/11 00:45:42;;;;;;;14.40;2.63;;;38.50;43.80;;;;;;5057679;28;20033;-61
2023/09/11 00:48:11;;;;;;;10.48;2.35;;;38.40;43.90;;;;;;5061246;28;20020;-62
2023/09/11 00:50:38;;;;;;;9.32;2.05;;;38.40;44.10;;;;;;5065422;28;20399;-61
2023/09/11 00:53:06;;;;;;;11.10;2.63;;;38.30;44.10;;;;;;5057945;28;20487;-62
2023/09/11 00:55:34;;;;;;;14.35;2.97;;;38.10;45.60;;;;;;5063394;28;20383;-61
2023/09/11 00:58:01;;;;;;;10.85;2.83;;;38.10;46.70;;;;;;5060689;28;20024;-62
2023/09/11 01:00:27;;;;;;;31.10;3.33;;;38.00;45.30;;;;;;5060527;28;20143;-61
2023/09/11 01:02:54;;;;;;;26.63;3.00;;;38.00;45.10;;;;;;5062000;28;20020;-62
2023/09/11 01:05:22;;;;;;;16.90;2.92;;;37.80;45.60;;;;;;5062319;28;20411;-61
2023/09/11 01:07:49;;;;;;;21.33;3.38;;;37.80;46.30;;;;;;5043402;28;20480;-60
2023/09/11 01:10:15;;;;;;;26.95;3.53;;;37.70;47.70;;;;;;5061118;28;20099;-61
2023/09/11 01:12:42;;;;;;;19.70;2.75;;;37.60;47.00;;;;;;5066446;28;20075;-63
2023/09/11 01:15:09;;;;;;;23.92;3.55;;;37.50;46.70;;;;;;5039681;28;20048;-61
2023/09/11 01:17:53;;;;;;;28.13;3.85;;;37.50;48.90;;;;;;5066582;28;20100;-59
2023/09/11 01:20:49;;;;;;;19.70;3.20;;;37.40;49.00;;;;;;5064669;28;20027;-63
2023/09/11 01:23:43;;;;;;;9.68;2.67;;;37.30;48.90;;;;;;5060996;28;20111;-62
2023/09/11 01:26:51;;;;;;;15.93;2.85;;;37.10;48.60;;;;;;5062629;28;20037;-61
2023/09/11 01:29:25;;;;;;;11.20;2.40;;;37.10;50.10;;;;;;5051554;28;20031;-64
2023/09/11 01:32:05;;;;;;;8.15;2.33;;;37.00;48.70;;;;;;5056973;28;20051;-62
2023/09/11 01:34:31;;;;;;;7.05;2.13;;;37.00;47.90;;;;;;5058042;28;20464;-62
2023/09/11 01:36:58;;;;;;;6.05;2.72;;;37.00;48.30;;;;;;5064447;28;20510;-61
2023/09/11 01:39:24;;;;;;;7.63;2.30;;;36.90;47.40;;;;;;5060413;28;20044;-59
2023/09/11 01:41:58;;;;;;;14.18;2.58;;;36.90;47.60;;;;;;5058748;28;20012;-61
2023/09/11 01:44:46;;;;;;;9.02;2.55;;;36.90;47.10;;;;;;5067466;28;20102;-59
2023/09/11 01:47:15;;;;;;;6.38;2.08;;;36.90;48.50;;;;;;5061595;28;20027;-64
2023/09/11 01:49:44;;;;;;;13.15;2.38;;;36.80;48.70;;;;;;5063542;28;20055;-61
2023/09/11 01:52:11;;;;;;;9.10;2.35;;;36.80;48.10;;;;;;5064179;28;20499;-61
2023/09/11 01:54:39;;;;;;;6.93;2.30;;;36.70;47.90;;;;;;5067422;28;20028;-61
2023/09/11 01:57:06;;;;;;;5.40;1.90;;;36.70;47.80;;;;;;5063862;28;20380;-62
2023/09/11 01:59:33;;;;;;;6.13;2.03;;;36.60;48.60;;;;;;5066805;28;20020;-62
2023/09/11 02:02:00;;;;;;;5.97;2.30;;;36.60;48.50;;;;;;5066545;28;20036;-62
2023/09/11 02:04:26;;;;;;;9.35;2.25;;;36.50;49.10;;;;;;5061246;28;20023;-60
2023/09/11 02:06:53;;;;;;;11.65;2.85;;;36.40;48.70;;;;;;5060018;28;20476;-63
2023/09/11 02:09:19;;;;;;;12.07;3.35;;;36.30;49.70;;;;;;5068724;28;20017;-60
2023/09/11 02:11:47;;;;;;;4.13;2.15;;;36.20;50.10;;;;;;5062608;28;20031;-63
2023/09/11 02:14:13;;;;;;;10.18;2.58;;;36.20;49.60;;;;;;5060829;28;20021;-61
2023/09/11 02:16:40;;;;;;;10.93;2.85;;;36.10;49.10;;;;;;5058409;28;20059;-62
2023/09/11 02:19:07;;;;;;;14.95;2.45;;;36.00;51.60;;;;;;5052584;28;20013;-58
2023/09/11 02:21:33;;;;;;;9.40;2.85;;;36.00;50.70;;;;;;5067812;28;20062;-56
2023/09/11 02:24:00;;;;;;;7.97;2.47;;;35.90;50.20;;;;;;5067426;28;20032;-60
2023/09/11 02:26:27;;;;;;;9.38;3.00;;;35.90;50.00;;;;;;5062462;28;20429;-61
2023/09/11 02:28:55;;;;;;;19.33;4.07;;;35.90;51.50;;;;;;5064522;28;20048;-61
2023/09/11 02:31:21;;;;;;;10.52;2.90;;;35.80;52.60;;;;;;5060281;28;20005;-60
2023/09/11 02:33:48;;;;;;;11.73;5.20;;;35.80;52.00;;;;;;5060146;28;20638;-61
2023/09/11 02:36:14;;;;;;;14.20;5.22;;;35.70;51.10;;;;;;5038897;28;20021;-61
2023/09/11 02:38:41;;;;;;;14.40;5.68;;;35.60;51.70;;;;;;5058908;28;20036;-61
2023/09/11 02:41:07;;;;;;;11.93;7.68;;;35.60;51.60;;;;;;5064068;28;20052;-61
2023/09/11 02:43:33;;;;;;;11.30;3.13;;;35.60;52.10;;;;;;5061480;28;20028;-59
2023/09/11 02:46:00;;;;;;;12.27;2.67;;;35.60;51.30;;;;;;5056607;28;20078;-61
2023/09/11 02:48:27;;;;;;;18.00;3.92;;;35.60;51.40;;;;;;5057445;28;20483;-62
2023/09/11 02:50:53;;;;;;;13.57;4.43;;;35.50;54.30;;;;;;5057936;28;20116;-61
2023/09/11 02:53:20;;;;;;;17.80;3.65;;;35.40;53.80;;;;;;5062144;28;20016;-60
2023/09/11 02:55:46;;;;;;;21.45;3.50;;;35.40;54.00;;;;;;5062206;28;20464;-59
2023/09/11 02:58:13;;;;;;;6.22;2.55;;;35.30;54.20;;;;;;5060057;28;20450;-69
2023/09/11 03:00:39;;;;;;;15.13;3.58;;;35.20;52.20;;;;;;5066587;28;20069;-68
2023/09/11 03:03:06;;;;;;;12.32;3.35;;;35.20;53.80;;;;;;5061229;28;21449;-69
2023/09/11 03:05:32;;;;;;;14.18;3.03;;;35.20;53.40;;;;;;5056112;28;20008;-65
2023/09/11 03:08:03;;;;;;;15.30;2.97;;;35.20;51.90;;;;;;5061993;28;20023;-68
2023/09/11 03:10:31;;;;;;;12.45;3.22;;;35.20;51.60;;;;;;5058631;28;20377;-68
2023/09/11 03:12:57;;;;;;;13.00;3.00;;;35.10;51.40;;;;;;5054000;28;20036;-67
2023/09/11 03:15:28;;;;;;;12.27;3.08;;;35.10;51.00;;;;;;5047782;28;20043;-69
2023/09/11 03:17:57;;;;;;;6.82;2.45;;;35.10;50.90;;;;;;5057320;28;20024;-67
2023/09/11 03:20:24;;;;;;;13.15;2.70;;;35.10;50.50;;;;;;5060623;28;20056;-68
2023/09/11 03:22:50;;;;;;;18.30;3.40;;;35.00;50.40;;;;;;5058149;28;20021;-68
2023/09/11 03:25:17;;;;;;;13.73;2.83;;;35.00;51.20;;;;;;5057800;28;20009;-68
2023/09/11 03:27:44;;;;;;;15.55;3.10;;;35.00;51.30;;;;;;5057253;28;20023;-68
2023/09/11 03:30:11;;;;;;;8.52;3.30;;;35.00;51.60;;;;;;5059066;28;20035;-65
2023/09/11 03:32:37;;;;;;;8.00;2.83;;;34.90;53.00;;;;;;5063248;28;20413;-66
2023/09/11 03:35:04;;;;;;;8.57;2.60;;;34.90;52.40;;;;;;5055058;28;20043;-65
2023/09/11 03:37:31;;;;;;;10.38;2.67;;;34.90;52.50;;;;;;5057185;28;20028;-66
2023/09/11 03:39:58;;;;;;;6.57;2.75;;;34.90;51.80;;;;;;5055729;28;20477;-67
2023/09/11 03:42:25;;;;;;;12.65;3.17;;;34.90;51.90;;;;;;5063604;28;20028;-68
2023/09/11 03:44:51;;;;;;;10.00;2.67;;;34.90;51.80;;;;;;5060363;28;20029;-65
2023/09/11 03:47:18;;;;;;;10.60;3.10;;;34.90;52.10;;;;;;5038530;28;20100;-66
2023/09/11 03:49:44;;;;;;;7.32;2.53;;;34.90;52.50;;;;;;5060918;28;20019;-65
2023/09/11 03:52:10;;;;;;;8.93;2.53;;;34.90;53.10;;;;;;5066054;28;20124;-66
2023/09/11 03:54:37;;;;;;;11.02;2.88;;;34.80;53.00;;;;;;5060457;28;20017;-66
2023/09/11 03:57:04;;;;;;;11.55;2.60;;;34.80;53.30;;;;;;5055710;28;20489;-66
2023/09/11 03:59:30;;;;;;;12.68;2.90;;;34.70;54.10;;;;;;5059834;28;20062;-67
2023/09/11 04:01:56;;;;;;;12.15;3.00;;;34.70;53.80;;;;;;5059503;28;20482;-66
2023/09/11 04:04:23;;;;;;;8.85;2.63;;;34.70;53.50;;;;;;5065987;28;20036;-67
2023/09/11 04:06:49;;;;;;;10.88;3.22;;;34.70;53.50;;;;;;5060347;28;20045;-64
2023/09/11 04:09:15;;;;;;;11.73;3.17;;;34.60;53.20;;;;;;5069937;28;20029;-65
2023/09/11 04:11:42;;;;;;;10.95;2.75;;;34.60;53.70;;;;;;5059727;28;20013;-64
2023/09/11 04:14:08;;;;;;;10.93;2.90;;;34.60;53.90;;;;;;5062178;28;20031;-66
2023/09/11 04:16:35;;;;;;;13.38;3.20;;;34.50;53.50;;;;;;5067557;28;20024;-65
2023/09/11 04:19:01;;;;;;;13.77;3.30;;;34.50;53.90;;;;;;5066493;28;20025;-65
2023/09/11 04:21:27;;;;;;;11.52;3.00;;;34.50;54.00;;;;;;5067460;28;20100;-66
2023/09/11 04:23:54;;;;;;;12.13;3.20;;;34.50;54.00;;;;;;5068265;28;20525;-65
2023/09/11 04:26:20;;;;;;;11.45;3.28;;;34.50;53.90;;;;;;5070004;28;20031;-66
2023/09/11 04:28:47;;;;;;;12.65;3.08;;;34.50;54.00;;;;;;5069843;28;20016;-66
2023/09/11 04:31:13;;;;;;;14.57;3.20;;;34.40;53.90;;;;;;5069702;28;20064;-64
2023/09/11 04:33:39;;;;;;;19.48;4.70;;;34.40;53.90;;;;;;5066666;28;20009;-63
2023/09/11 04:36:06;;;;;;;11.98;4.13;;;34.40;54.70;;;;;;5062483;28;20016;-67
2023/09/11 04:38:32;;;;;;;19.20;4.20;;;34.40;55.30;;;;;;5068207;28;20024;-64
2023/09/11 04:40:59;;;;;;;13.25;3.60;;;34.30;55.20;;;;;;5068215;28;20044;-65
2023/09/11 04:43:26;;;;;;;21.20;3.50;;;34.30;55.40;;;;;;5068637;28;20025;-64
2023/09/11 04:45:52;;;;;;;15.68;3.53;;;34.20;55.10;;;;;;5068058;28;20048;-67
2023/09/11 04:48:19;;;;;;;28.15;4.18;;;34.20;54.70;;;;;;5064149;28;20104;-64
2023/09/11 04:50:45;;;;;;;31.20;3.92;;;34.20;55.30;;;;;;5067228;28;20009;-65
2023/09/11 04:53:12;;;;;;;20.50;3.80;;;34.10;55.10;;;;;;5043313;28;20062;-67
2023/09/11 04:55:39;;;;;;;13.02;3.50;;;34.10;55.50;;;;;;5068123;28;20016;-64
2023/09/11 04:58:05;;;;;;;20.38;3.35;;;34.10;55.50;;;;;;5066306;28;20499;-62
2023/09/11 05:00:33;;;;;;;16.85;3.58;;;34.10;54.70;;;;;;5053283;28;20025;-63
2023/09/11 05:02:59;;;;;;;15.27;2.88;;;34.70;54.00;;;;;;5062037;28;20052;-64
2023/09/11 05:05:26;;;;;;;9.48;2.97;;;35.10;53.00;;;;;;5061775;28;20091;-64
2023/09/11 05:07:52;;;;;;;15.73;3.15;;;35.40;52.30;;;;;;5061339;28;20017;-64
2023/09/11 05:10:19;;;;;;;11.32;2.40;;;35.60;51.80;;;;;;5060921;28;20028;-62
2023/09/11 05:12:46;;;;;;;11.63;3.10;;;35.70;52.30;;;;;;5067132;28;20495;-61
2023/09/11 05:15:14;;;;;;;7.28;2.22;;;35.80;51.40;;;;;;5066023;28;20047;-62
2023/09/11 05:17:41;;;;;;;8.80;2.42;;;35.90;50.90;;;;;;5062852;28;20039;-61
2023/09/11 05:20:07;;;;;;;10.70;2.33;;;36.00;50.90;;;;;;5059739;28;20040;-64
2023/09/11 05:22:34;;;;;;;9.77;2.90;;;36.10;51.90;;;;;;5066985;28;20081;-61
2023/09/11 05:25:01;;;;;;;11.60;2.70;;;36.10;51.20;;;;;;5062882;28;20009;-61
2023/09/11 05:27:28;;;;;;;11.13;2.35;;;36.00;51.10;;;;;;5060021;28;20400;-63
2023/09/11 05:29:54;;;;;;;8.98;2.42;;;36.00;51.30;;;;;;5062418;28;20012;-60
2023/09/11 05:32:23;;;;;;;10.75;2.38;;;36.10;51.30;;;;;;5062664;28;20023;-62
2023/09/11 05:34:49;;;;;;;6.72;2.13;;;36.00;50.90;;;;;;5057607;28;20023;-61
2023/09/11 05:37:16;;;;;;;14.13;3.20;;;35.90;51.00;;;;;;5058978;28;20025;-62
2023/09/11 05:39:43;;;;;;;8.93;2.72;;;35.90;51.00;;;;;;5059578;28;20021;-64
2023/09/11 05:42:11;;;;;;;7.18;2.55;;;36.00;51.20;;;;;;5060886;28;20032;-60
2023/09/11 05:44:37;;;;;;;10.63;3.45;;;36.00;51.20;;;;;;5057739;28;20029;-62
2023/09/11 05:47:06;;;;;;;16.23;5.95;;;35.90;50.80;;;;;;5062585;28;20369;-61
2023/09/11 05:49:32;;;;;;;12.70;3.17;;;35.90;50.80;;;;;;5064502;28;20057;-63
2023/09/11 05:51:59;;;;;;;10.38;2.67;;;35.80;50.80;;;;;;5060891;28;20107;-62
2023/09/11 05:54:25;;;;;;;6.20;2.42;;;35.80;50.10;;;;;;5060175;28;20028;-62
2023/09/11 05:56:52;;;;;;;8.07;2.70;;;35.80;50.20;;;;;;5062844;28;20013;-63
2023/09/11 05:59:19;;;;;;;9.20;5.07;;;35.80;50.10;;;;;;5064725;28;20012;-62
2023/09/11 06:01:47;;;;;;;45.03;39.65;;;35.80;50.30;;;;;;5065719;28;20384;-64
2023/09/11 06:04:16;;;;;;;76.47;68.93;;;35.80;49.70;;;;;;5065950;28;20035;-62
2023/09/11 06:06:43;;;;;;;10.60;5.70;;;35.80;49.70;;;;;;5066139;28;20016;-63
2023/09/11 06:09:09;;;;;;;8.23;2.47;;;35.80;50.40;;;;;;5067566;28;20078;-63
2023/09/11 06:11:36;;;;;;;6.28;2.25;;;35.80;49.70;;;;;;5068129;28;20021;-64
2023/09/11 06:14:04;;;;;;;6.75;2.72;;;35.90;50.30;;;;;;5064963;28;20379;-61
2023/09/11 06:16:31;;;;;;;6.90;3.20;;;35.90;50.10;;;;;;5064088;28;20076;-61
2023/09/11 06:19:01;;;;;;;9.35;4.93;;;35.90;50.10;;;;;;5058584;28;20093;-62
2023/09/11 06:21:28;;;;;;;16.98;7.20;;;35.80;49.80;;;;;;5030640;28;20472;-61
2023/09/11 06:23:54;;;;;;;12.27;7.00;;;35.80;50.50;;;;;;5067338;28;20028;-61
2023/09/11 06:26:21;;;;;;;14.57;4.75;;;35.80;50.40;;;;;;5052653;28;20009;-59
2023/09/11 06:28:47;;;;;;;14.32;3.10;;;35.70;50.70;;;;;;5057408;28;20040;-62
2023/09/11 06:31:14;;;;;;;20.83;7.90;;;35.60;50.80;;;;;;5059826;28;20106;-61
2023/09/11 06:33:42;;;;;;;15.82;7.00;;;35.60;50.80;;;;;;5057552;28;20021;-62
2023/09/11 06:36:09;;;;;;;12.50;4.10;;;35.60;51.00;;;;;;5059150;28;20029;-62
2023/09/11 06:38:35;;;;;;;4.93;2.58;;;35.50;51.40;;;;;;5058238;28;20515;-61
2023/09/11 06:41:03;;;;;;;10.00;2.70;;;35.50;50.90;;;;;;5056803;28;20009;-63
2023/09/11 06:43:29;;;;;;;12.88;3.00;;;35.50;51.70;;;;;;5059119;28;20051;-63
2023/09/11 06:45:56;;;;;;;6.45;2.63;;;35.40;51.10;;;;;;5056185;28;20029;-61
2023/09/11 06:48:23;;;;;;;21.17;3.15;;;35.30;51.10;;;;;;5057245;28;20069;-61
2023/09/11 06:50:53;;;;;;;15.68;3.10;;;35.30;51.50;;;;;;5057021;28;20044;-64
2023/09/11 06:53:19;;;;;;;9.05;2.72;;;35.30;51.60;;;;;;5057782;28;20017;-60
2023/09/11 06:55:49;;;;;;;11.77;3.10;;;35.30;51.80;;;;;;5056872;28;20020;-62
2023/09/11 06:58:15;;;;;;;9.63;2.67;;;35.30;51.90;;;;;;5058389;28;20021;-62
2023/09/11 07:00:42;;;;;;;8.52;2.78;;;35.10;51.90;;;;;;5056947;28;20078;-62
2023/09/11 07:03:09;;;;;;;10.02;2.85;;;35.10;52.70;;;;;;5057936;28;20056;-62
2023/09/11 07:05:36;;;;;;;5.90;2.67;;;35.00;52.70;;;;;;5055375;28;20009;-62
2023/09/11 07:08:03;;;;;;;14.00;2.60;;;35.00;52.40;;;;;;5058540;28;20082;-62
2023/09/11 07:10:29;;;;;;;5.45;2.38;;;34.90;52.40;;;;;;5057963;28;20009;-62
2023/09/11 07:12:55;;;;;;;7.50;2.75;;;34.90;53.00;;;;;;5057316;28;20021;-61
2023/09/11 07:15:22;;;;;;;4.82;2.45;;;34.90;53.60;;;;;;5058618;28;20016;-61
2023/09/11 07:17:49;;;;;;;6.63;2.55;;;34.80;53.30;;;;;;5058468;28;20023;-61
2023/09/11 07:20:15;;;;;;;4.63;2.83;;;34.80;53.60;;;;;;5058302;28;20052;-61
2023/09/11 07:22:42;;;;;;;7.28;2.67;;;34.80;54.00;;;;;;5058248;28;20029;-61
2023/09/11 07:25:12;;;;;;;5.55;3.00;;;34.70;52.40;;;;;;5058109;28;20036;-59
2023/09/11 07:27:39;;;;;;;5.50;2.50;;;34.70;52.70;;;;;;5059067;28;20020;-60
2023/09/11 07:30:09;;;;;;;4.30;2.88;;;34.60;52.90;;;;;;5055288;28;20024;-62
2023/09/11 07:32:35;;;;;;;10.07;2.45;;;34.70;53.90;;;;;;5057696;28;20025;-62
2023/09/11 07:35:01;;;;;;;6.97;2.80;;;34.60;53.20;;;;;;5056786;28;20066;-61
2023/09/11 07:37:28;;;;;;;7.82;3.08;;;34.60;53.90;;;;;;5056401;28;20160;-61
2023/09/11 07:39:54;;;;;;;9.25;2.53;;;34.60;53.70;;;;;;5060328;28;20079;-61
2023/09/11 07:42:21;;;;;;;8.13;2.78;;;34.60;54.10;;;;;;5061601;28;20033;-61
2023/09/11 07:44:47;;;;;;;11.38;3.15;;;34.60;54.00;;;;;;5060840;28;20035;-63
2023/09/11 07:47:13;;;;;;;5.55;2.75;;;34.50;53.00;;;;;;5041624;28;20017;-61
2023/09/11 07:49:40;;;;;;;9.80;2.67;;;34.50;53.10;;;;;;5060851;28;20009;-62
2023/09/11 07:52:06;;;;;;;7.78;2.88;;;34.50;52.90;;;;;;5061693;28;20055;-60
2023/09/11 07:54:33;;;;;;;9.82;2.90;;;34.40;53.50;;;;;;5061781;28;20012;-62
2023/09/11 07:57:01;;;;;;;10.77;2.92;;;34.40;53.70;;;;;;5058700;28;20021;-63
2023/09/11 07:59:27;;;;;;;11.80;3.15;;;34.40;54.10;;;;;;5062537;28;20546;-63
2023/09/11 08:01:54;;;;;;;17.58;3.05;;;34.40;53.70;;;;;;5065083;28;20017;-62
2023/09/11 08:04:20;;;;;;;10.15;3.28;;;34.40;54.20;;;;;;5061969;28;20020;-62
2023/09/11 08:06:46;;;;;;;16.65;3.63;;;34.40;54.20;;;;;;5062203;28;20013;-63
2023/09/11 08:09:13;;;;;;;24.05;3.70;;;34.30;54.30;;;;;;5059128;28;20020;-62
2023/09/11 08:11:39;;;;;;;8.95;2.67;;;34.30;54.90;;;;;;5058689;28;20468;-62
2023/09/11 08:14:08;;;;;;;7.10;2.47;;;34.30;53.80;;;;;;5061729;28;20043;-62
2023/09/11 08:16:35;;;;;;;7.15;2.70;;;34.20;53.80;;;;;;5066691;28;20035;-63
2023/09/11 08:19:01;;;;;;;8.00;2.30;;;34.20;54.20;;;;;;5065351;28;20020;-62
2023/09/11 08:21:28;;;;;;;5.93;2.70;;;34.20;53.60;;;;;;5061489;28;20026;-62
2023/09/11 08:23:54;;;;;;;8.40;2.90;;;34.20;55.10;;;;;;5059398;28;20120;-61
2023/09/11 08:26:20;;;;;;;12.25;2.78;;;34.20;54.10;;;;;;5060892;28;20035;-62
2023/09/11 08:28:47;;;;;;;6.90;2.95;;;34.20;54.10;;;;;;5060518;28;20025;-60
2023/09/11 08:31:13;;;;;;;4.57;2.70;;;34.10;54.20;;;;;;5061953;28;20009;-62
2023/09/11 08:33:40;;;;;;;5.03;2.90;;;34.10;54.20;;;;;;5060400;28;20024;-62
2023/09/11 08:36:08;;;;;;;5.50;3.15;;;34.10;54.00;;;;;;5060095;28;20020;-62
2023/09/11 08:38:34;;;;;;;5.32;2.83;;;34.00;53.90;;;;;;5059774;28;20104;-61
2023/09/11 08:41:01;;;;;;;7.53;2.65;;;34.00;53.90;;;;;;5060172;28;20067;-62
2023/09/11 08:43:28;;;;;;;9.35;2.83;;;33.90;53.70;;;;;;5059753;28;20024;-63
2023/09/11 08:45:56;;;;;;;4.13;2.28;;;33.90;53.80;;;;;;5059632;28;20041;-59
2023/09/11 08:48:28;;;;;;;7.25;3.00;;;33.90;54.10;;;;;;5058064;28;20020;-62
2023/09/11 08:50:58;;;;;;;7.90;3.00;;;33.90;54.20;;;;;;5042863;28;20373;-60
2023/09/11 08:53:25;;;;;;;8.32;2.47;;;33.90;54.20;;;;;;5061171;28;20016;-60
2023/09/11 08:55:54;;;;;;;9.18;2.83;;;33.90;54.50;;;;;;5058538;28;20013;-63
2023/09/11 08:58:21;;;;;;;7.78;2.80;;;33.80;54.20;;;;;;5059454;28;20350;-62
2023/09/11 09:00:48;;;;;;;10.45;2.92;;;33.80;54.50;;;;;;5059469;28;20043;-62
2023/09/11 09:03:16;;;;;;;7.68;2.90;;;33.80;54.50;;;;;;5060948;28;20547;-63
2023/09/11 09:05:43;;;;;;;7.10;3.20;;;33.70;54.40;;;;;;5058195;28;20021;-61
2023/09/11 09:08:14;;;;;;;5.95;3.05;;;33.60;54.60;;;;;;5060218;28;20005;-64
2023/09/11 09:10:42;;;;;;;8.88;2.92;;;33.50;54.70;;;;;;5058523;28;20032;-64
2023/09/11 09:13:10;;;;;;;7.18;3.15;;;33.50;54.80;;;;;;5057533;28;20036;-63
2023/09/11 09:15:42;;;;;;;8.88;3.13;;;33.50;55.20;;;;;;5057604;28;20016;-62
2023/09/11 09:18:11;;;;;;;3.90;2.90;;;33.50;55.20;;;;;;5056092;28;20453;-62
2023/09/11 09:20:39;;;;;;;11.20;3.22;;;33.50;54.70;;;;;;5057790;28;20421;-62
2023/09/11 09:23:06;;;;;;;6.35;2.60;;;33.50;55.20;;;;;;5058980;28;20111;-61
2023/09/11 09:25:32;;;;;;;9.38;2.75;;;33.50;54.80;;;;;;5059915;28;20017;-63
2023/09/11 09:27:59;;;;;;;7.03;2.72;;;33.50;55.20;;;;;;5058417;28;20043;-62
2023/09/11 09:30:30;;;;;;;3.88;2.50;;;33.40;55.20;;;;;;5059862;28;20005;-64
2023/09/11 09:32:57;;;;;;;5.82;2.25;;;33.40;54.90;;;;;;5038367;28;20023;-62
2023/09/11 09:35:31;;;;;;;4.40;2.70;;;33.40;55.00;;;;;;5059442;28;20017;-63
2023/09/11 09:37:59;;;;;;;8.00;2.60;;;33.30;54.80;;;;;;5058323;28;20052;-63
2023/09/11 09:40:39;;;;;;;4.85;2.80;;;33.30;55.40;;;;;;5060746;28;20027;-62
2023/09/11 09:43:16;;;;;;;4.78;2.25;;;33.30;55.10;;;;;;5059800;28;20044;-63
2023/09/11 09:45:43;;;;;;;7.47;2.85;;;33.20;55.40;;;;;;5061767;28;20036;-65
2023/09/11 09:48:16;;;;;;;4.13;2.58;;;33.20;55.80;;;;;;5062575;28;20444;-62
2023/09/11 09:51:02;;;;;;;5.10;2.80;;;33.20;55.40;;;;;;5061500;28;20020;-62
2023/09/11 09:53:28;;;;;;;4.68;2.70;;;33.20;55.40;;;;;;5057136;28;20021;-62
2023/09/11 09:55:56;;;;;;;7.25;2.97;;;33.20;55.50;;;;;;5058617;28;20048;-61
2023/09/11 09:58:27;;;;;;;6.35;2.97;;;33.10;55.40;;;;;;5061722;28;20036;-62
2023/09/11 10:01:05;;;;;;;7.50;3.10;;;33.10;55.60;;;;;;5055935;28;20400;-62
2023/09/11 10:03:45;;;;;;;9.93;2.97;;;33.10;55.50;;;;;;5057032;28;20165;-61
2023/09/11 10:06:15;;;;;;;5.65;2.47;;;33.10;55.70;;;;;;5055772;28;20088;-63
2023/09/11 10:08:42;;;;;;;7.05;2.65;;;33.10;55.70;;;;;;5056836;28;20020;-62
2023/09/11 10:11:25;;;;;;;4.55;2.63;;;33.10;55.70;;;;;;5056680;28;20095;-63
2023/09/11 10:13:52;;;;;;;7.95;2.70;;;33.00;55.80;;;;;;5037212;28;20104;-61
2023/09/11 10:16:19;;;;;;;6.85;2.70;;;33.00;55.80;;;;;;5056141;28;20016;-62
2023/09/11 10:18:46;;;;;;;3.22;2.33;;;33.00;55.80;;;;;;5058033;28;20103;-61
2023/09/11 10:21:12;;;;;;;7.43;3.20;;;33.00;55.90;;;;;;5059704;28;20013;-62
2023/09/11 10:23:38;;;;;;;6.25;2.72;;;32.90;56.30;;;;;;5059956;28;20025;-61
2023/09/11 10:26:08;;;;;;;6.18;2.67;;;32.90;56.10;;;;;;5058904;28;20048;-62
2023/09/11 10:28:40;;;;;;;3.45;2.38;;;32.90;56.20;;;;;;5058967;28;20012;-62
2023/09/11 10:31:20;;;;;;;3.83;2.67;;;32.90;56.50;;;;;;5058569;28;20009;-62
2023/09/11 10:33:53;;;;;;;5.55;2.83;;;32.90;56.30;;;;;;5053134;28;20377;-61
2023/09/11 10:36:22;;;;;;;9.60;3.08;;;32.90;56.70;;;;;;5056274;28;20461;-62
2023/09/11 10:38:50;;;;;;;5.95;2.42;;;32.90;56.70;;;;;;5058794;28;20025;-61
2023/09/11 10:41:17;;;;;;;4.55;2.65;;;32.80;57.00;;;;;;5060216;28;20477;-61
2023/09/11 10:43:48;;;;;;;4.85;3.03;;;32.80;57.20;;;;;;5057659;28;20400;-62
2023/09/11 10:46:15;;;;;;;8.00;2.70;;;32.80;57.10;;;;;;5058193;28;20041;-61
2023/09/11 10:48:41;;;;;;;6.35;2.75;;;32.80;57.90;;;;;;5058546;28;20020;-62
2023/09/11 10:51:08;;;;;;;6.63;2.83;;;32.80;57.50;;;;;;5058354;28;20044;-63
2023/09/11 10:53:34;;;;;;;8.38;2.97;;;32.80;57.60;;;;;;5057687;28;20043;-62
2023/09/11 10:56:04;;;;;;;4.35;2.20;;;32.70;57.70;;;;;;5060338;28;20048;-61
2023/09/11 10:58:31;;;;;;;9.90;2.53;;;32.70;57.30;;;;;;5058218;28;20058;-62
2023/09/11 11:00:58;;;;;;;6.10;2.70;;;32.70;57.50;;;;;;5058074;28;20025;-64
2023/09/11 11:03:28;;;;;;;7.28;2.50;;;32.60;57.80;;;;;;5057663;28;20158;-63
2023/09/11 11:05:55;;;;;;;11.55;2.92;;;32.60;56.80;;;;;;5057970;28;20051;-62
2023/09/11 11:08:22;;;;;;;5.93;2.90;;;32.60;57.00;;;;;;5057310;28;20013;-63
2023/09/11 11:11:22;;;;;;;6.03;2.80;;;32.60;57.50;;;;;;5055901;28;20008;-62
2023/09/11 11:14:17;;;;;;;3.58;2.70;;;32.60;57.40;;;;;;5060825;28;20032;-62
2023/09/11 11:17:04;;;;;;;6.70;2.65;;;32.50;56.90;;;;;;5057132;28;20087;-62
2023/09/11 11:19:31;;;;;;;;;;;32.50;58.00;;;;;;5062267;28;20560;-62
2023/09/11 11:22:01;;;;;;;6.60;2.85;;;32.50;57.50;;;;;;5063002;28;19912;-61
2023/09/11 11:24:34;;;;;;;4.30;2.55;;;32.40;57.30;;;;;;5064613;28;20115;-63
2023/09/11 11:27:03;;;;;;;4.60;2.40;;;32.40;57.70;;;;;;5061879;28;20040;-62
2023/09/11 11:29:30;;;;;;;5.78;2.80;;;32.50;58.50;;;;;;5060202;28;20017;-62
2023/09/11 11:32:00;;;;;;;6.57;2.65;;;32.40;59.00;;;;;;5061398;28;20395;-61
2023/09/11 11:34:31;;;;;;;6.00;2.60;;;32.40;58.50;;;;;;5060621;28;20111;-62
2023/09/11 11:36:59;;;;;;;7.90;2.97;;;32.40;58.20;;;;;;5049279;28;20416;-63
2023/09/11 11:39:27;;;;;;;5.57;3.05;;;32.30;57.70;;;;;;5060528;28;20427;-63
2023/09/11 11:41:55;;;;;;;5.22;2.90;;;32.30;57.70;;;;;;5061964;28;20029;-61
2023/09/11 11:44:23;;;;;;;6.97;2.95;;;32.30;58.00;;;;;;5059284;28;20055;-62
2023/09/11 11:46:52;;;;;;;8.30;3.00;;;32.20;58.10;;;;;;5061920;28;20025;-62
2023/09/11 11:49:20;;;;;;;8.18;2.60;;;32.20;58.50;;;;;;5062451;28;20067;-62
2023/09/11 11:51:47;;;;;;;9.05;2.83;;;32.20;59.30;;;;;;5060832;28;20399;-62
2023/09/11 11:54:27;;;;;;;8.20;2.83;;;32.10;59.30;;;;;;5062214;28;20544;-62
2023/09/11 11:56:58;;;;;;;3.63;2.80;;;32.10;59.00;;;;;;5060743;28;20039;-62
2023/09/11 11:59:30;;;;;;;8.20;2.95;;;32.10;59.00;;;;;;5060575;28;20375;-63
2023/09/11 12:01:57;;;;;;;7.78;3.25;;;32.00;58.90;;;;;;5062144;28;20025;-62
2023/09/11 12:04:24;;;;;;;12.00;2.90;;;32.00;59.40;;;;;;5060825;28;20017;-62
2023/09/11 12:06:57;;;;;;;10.65;3.30;;;31.90;60.00;;;;;;5060444;28;20013;-62
2023/09/11 12:09:24;;;;;;;3.88;2.70;;;31.90;60.30;;;;;;5059123;28;20023;-63
2023/09/11 12:11:51;;;;;;;12.95;3.13;;;31.90;60.30;;;;;;5059529;28;20037;-62
2023/09/11 12:14:18;;;;;;;10.32;3.13;;;31.80;59.80;;;;;;5059079;28;20072;-61
2023/09/11 12:16:45;;;;;;;9.70;2.95;;;31.80;60.00;;;;;;5042330;28;20017;-63
2023/09/11 12:19:13;;;;;;;6.35;2.90;;;31.80;59.90;;;;;;5061361;28;20009;-62
2023/09/11 12:21:42;;;;;;;11.10;2.95;;;31.80;59.50;;;;;;5061614;28;20055;-62
2023/09/11 12:24:10;;;;;;;13.88;3.40;;;31.80;60.50;;;;;;5061242;28;20357;-63
2023/09/11 12:26:37;;;;;;;10.55;3.22;;;31.80;59.50;;;;;;5058277;28;20071;-62
2023/09/11 12:29:04;;;;;;;11.02;3.15;;;31.90;59.90;;;;;;5058155;28;20020;-62
2023/09/11 12:31:31;;;;;;;8.25;3.30;;;31.90;60.70;;;;;;5063427;28;20021;-61
2023/09/11 12:34:00;;;;;;;8.43;2.88;;;31.80;61.20;;;;;;5057465;28;20480;-62
2023/09/11 12:36:27;;;;;;;7.43;3.22;;;31.70;59.80;;;;;;5062996;28;20017;-62
2023/09/11 12:38:54;;;;;;;13.20;3.42;;;31.70;60.20;;;;;;5060118;28;20031;-64
2023/09/11 12:41:25;;;;;;;8.18;3.15;;;31.70;60.40;;;;;;5057558;28;20019;-63
2023/09/11 12:43:51;;;;;;;12.48;3.35;;;31.70;60.60;;;;;;5059355;28;20021;-62
2023/09/11 12:46:18;;;;;;;16.60;3.08;;;31.70;60.40;;;;;;5059067;28;20037;-63
2023/09/11 12:48:46;;;;;;;7.05;2.80;;;31.70;60.20;;;;;;5061642;28;20352;-61